Time;durP1;ratioP1;P1;durP2;ratioP2;P2;SDS_P1;SDS_P2;PMS_P1;PMS_P2;Temp;Humidity;BMP_temperature;BMP_pressure;BME280_temperature;BME280_humidity;BME280_pressure;Samples;Min_cycle;Max_cycle;Signal;HPM_P1;HPM_P2
2021/09/11 00:01:32;;;;;;;5.28;4.88;;;;;;;20.46;80.21;98771.34;4988595;28;102691;-73
2021/09/11 00:04:01;;;;;;;4.72;4.43;;;;;;;20.51;79.64;98774.34;4985995;28;102743;-74
2021/09/11 00:06:29;;;;;;;4.90;4.50;;;;;;;20.53;80.56;98773.16;4984312;28;103465;-73
2021/09/11 00:08:57;;;;;;;5.85;5.45;;;;;;;20.51;80.84;98777.03;4985109;28;103363;-74
2021/09/11 00:11:26;;;;;;;9.77;8.90;;;;;;;20.01;84.45;98772.72;4986361;28;102673;-73
2021/09/11 00:13:54;;;;;;;7.53;6.93;;;;;;;19.94;85.18;98766.34;4986463;28;103071;-73
2021/09/11 00:16:23;;;;;;;8.23;7.47;;;;;;;20.05;84.22;98762.47;4982250;28;103979;-74
2021/09/11 00:18:51;;;;;;;9.25;8.45;;;;;;;20.03;83.64;98761.81;4983179;28;103183;-74
2021/09/11 00:21:19;;;;;;;7.95;7.35;;;;;;;19.96;83.90;98763.47;4985205;28;102658;-74
2021/09/11 00:23:47;;;;;;;8.73;7.72;;;;;;;20.07;82.12;98758.63;4986736;28;103626;-73
2021/09/11 00:26:15;;;;;;;8.57;7.88;;;;;;;19.91;83.96;98758.63;4985086;28;103260;-73
2021/09/11 00:28:45;;;;;;;8.70;7.88;;;;;;;19.72;84.15;98764.34;4987652;28;103202;-73
2021/09/11 00:31:13;;;;;;;9.00;8.15;;;;;;;19.54;84.66;98766.31;4984034;28;102648;-72
2021/09/11 00:33:41;;;;;;;10.23;9.23;;;;;;;19.41;86.56;98765.97;4990752;28;103934;-73
2021/09/11 00:36:09;;;;;;;9.73;8.90;;;;;;;19.25;87.38;98771.28;4983500;28;104003;-73
2021/09/11 00:38:37;;;;;;;9.30;8.48;;;;;;;19.29;87.37;98775.28;4988958;28;103237;-73
2021/09/11 00:41:05;;;;;;;10.40;9.32;;;;;;;19.30;86.09;98771.59;4982133;28;102638;-72
2021/09/11 00:43:34;;;;;;;9.65;8.85;;;;;;;19.39;85.65;98762.63;4984292;28;102729;-73
2021/09/11 00:46:04;;;;;;;8.63;7.93;;;;;;;19.60;84.38;98765.66;4965243;28;103288;-73
2021/09/11 00:48:32;;;;;;;8.38;7.68;;;;;;;19.40;84.71;98769.63;4984204;28;103260;-73
2021/09/11 00:51:00;;;;;;;8.95;8.15;;;;;;;19.35;85.11;98772.78;4987235;28;102558;-65
2021/09/11 00:53:28;;;;;;;9.02;8.18;;;;;;;19.51;84.49;98777.34;4968735;28;103924;-66
2021/09/11 00:55:56;;;;;;;7.63;7.03;;;;;;;19.49;84.32;98782.06;4984447;28;103378;-66
2021/09/11 00:58:25;;;;;;;7.20;6.68;;;;;;;19.49;84.20;98776.69;4985841;28;103273;-66
2021/09/11 01:00:53;;;;;;;6.95;6.45;;;;;;;19.51;82.74;98780.03;4982973;28;102669;-66
2021/09/11 01:03:22;;;;;;;6.72;6.22;;;;;;;19.69;82.12;98780.75;4989454;28;104017;-65
2021/09/11 01:05:51;;;;;;;6.10;5.60;;;;;;;19.87;81.57;98786.81;4983211;28;105650;-66
2021/09/11 01:08:19;;;;;;;7.22;6.53;;;;;;;19.74;82.58;98780.22;4983025;28;103860;-66
2021/09/11 01:10:47;;;;;;;6.38;5.88;;;;;;;19.54;83.18;98780.56;4987755;28;102609;-66
2021/09/11 01:13:15;;;;;;;7.68;7.07;;;;;;;19.37;82.28;98786.84;4989190;28;103985;-65
2021/09/11 01:15:43;;;;;;;5.88;5.47;;;;;;;19.63;82.43;98778.72;4985250;28;103264;-65
2021/09/11 01:18:12;;;;;;;6.53;6.03;;;;;;;19.61;82.87;98778.91;4984717;28;103344;-65
2021/09/11 01:20:41;;;;;;;5.95;5.45;;;;;;;19.74;81.72;98773.03;4991877;28;103816;-64
2021/09/11 01:23:09;;;;;;;5.75;5.25;;;;;;;19.81;81.19;98781.25;4983329;28;102915;-65
2021/09/11 01:25:39;;;;;;;6.18;5.68;;;;;;;19.84;81.64;98776.41;4982937;28;103151;-66
2021/09/11 01:28:07;;;;;;;8.18;6.15;;;;;;;19.65;82.44;98776.72;4988161;28;103956;-66
2021/09/11 01:30:35;;;;;;;6.28;5.78;;;;;;;19.66;82.48;98773.88;4985129;28;103635;-65
2021/09/11 01:33:03;;;;;;;6.53;6.03;;;;;;;19.65;83.44;98777.56;4981642;28;103994;-66
2021/09/11 01:35:31;;;;;;;5.75;5.25;;;;;;;19.66;83.16;98784.59;4968822;28;104130;-66
2021/09/11 01:37:59;;;;;;;4.80;4.32;;;;;;;19.77;82.66;98780.75;4981179;28;103202;-65
2021/09/11 01:40:27;;;;;;;6.28;5.78;;;;;;;19.83;82.33;98774.72;4981016;28;102894;-66
2021/09/11 01:42:57;;;;;;;6.88;6.38;;;;;;;19.78;83.94;98770.88;4984773;28;102739;-65
2021/09/11 01:45:25;;;;;;;7.45;6.72;;;;;;;19.76;84.71;98779.06;4984144;28;104321;-66
2021/09/11 01:47:53;;;;;;;9.65;8.88;;;;;;;19.48;88.32;98786.56;4980820;28;103017;-67
2021/09/11 01:50:22;;;;;;;6.88;6.35;;;;;;;19.64;87.55;98780.41;4988128;28;102698;-65
2021/09/11 01:52:52;;;;;;;6.57;6.07;;;;;;;19.75;86.37;98792.66;4988555;28;102636;-66
2021/09/11 01:55:21;;;;;;;7.75;7.15;;;;;;;19.80;86.48;98793.81;4990699;28;103260;-66
2021/09/11 01:57:49;;;;;;;8.57;7.78;;;;;;;19.52;88.35;98792.44;4985738;28;103252;-67
2021/09/11 02:00:20;;;;;;;10.23;9.40;;;;;;;19.18;90.79;98795.19;4981325;28;102670;-65
2021/09/11 02:02:49;;;;;;;7.55;6.95;;;;;;;19.25;90.01;98800.72;4981474;28;103078;-65
2021/09/11 02:05:18;;;;;;;7.35;6.72;;;;;;;19.24;88.81;98804.41;4984871;28;104107;-66
2021/09/11 02:07:46;;;;;;;7.18;6.53;;;;;;;19.20;88.19;98800.38;4985111;28;103164;-66
2021/09/11 02:10:17;;;;;;;6.93;6.32;;;;;;;19.36;87.11;98803.09;4985117;28;102538;-66
2021/09/11 02:12:45;;;;;;;7.00;6.40;;;;;;;19.46;85.83;98803.81;4983859;28;103799;-65
2021/09/11 02:15:14;;;;;;;6.55;6.05;;;;;;;19.52;85.55;98804.00;4983227;28;104093;-65
2021/09/11 02:17:44;;;;;;;5.85;5.35;;;;;;;19.57;85.03;98800.81;4979223;28;103218;-65
2021/09/11 02:20:13;;;;;;;7.20;6.60;;;;;;;19.54;84.80;98804.66;4984256;28;102746;-65
2021/09/11 02:22:41;;;;;;;6.50;5.90;;;;;;;19.64;83.61;98791.13;4978696;28;104150;-65
2021/09/11 02:25:11;;;;;;;6.03;5.63;;;;;;;19.63;84.16;98805.53;4977078;28;103251;-65
2021/09/11 02:27:40;;;;;;;5.55;5.15;;;;;;;19.64;84.17;98801.84;4982512;28;103258;-65
2021/09/11 02:30:10;;;;;;;5.82;5.32;;;;;;;19.66;83.95;98800.69;4967419;28;102936;-66
2021/09/11 02:32:38;;;;;;;6.38;5.88;;;;;;;19.72;82.71;98798.34;4982880;28;102715;-65
2021/09/11 02:35:09;;;;;;;5.25;4.75;;;;;;;19.69;83.84;98791.47;4988402;28;103446;-66
2021/09/11 02:37:37;;;;;;;5.65;5.15;;;;;;;19.68;83.54;98798.66;4983259;28;103364;-66
2021/09/11 02:40:06;;;;;;;6.75;6.15;;;;;;;19.66;83.80;98789.13;4984580;28;102586;-67
2021/09/11 02:42:34;;;;;;;6.22;5.63;;;;;;;19.68;83.92;98800.50;4979419;28;104259;-65
2021/09/11 02:45:02;;;;;;;7.53;6.93;;;;;;;19.62;84.33;98793.97;4986550;28;103216;-65
2021/09/11 02:47:30;;;;;;;6.40;5.85;;;;;;;19.63;84.06;98800.16;4983692;28;103230;-66
2021/09/11 02:49:58;;;;;;;6.45;5.95;;;;;;;19.44;85.24;98795.09;4985928;28;103960;-65
2021/09/11 02:52:28;;;;;;;6.70;6.20;;;;;;;19.49;85.28;98798.13;4980352;28;102807;-66
2021/09/11 02:54:56;;;;;;;6.40;5.90;;;;;;;19.61;84.69;98791.47;4980629;28;103289;-65
2021/09/11 02:57:23;;;;;;;4.93;4.55;;;;;;;19.62;84.38;98807.34;4984658;28;103223;-66
2021/09/11 02:59:51;;;;;;;5.80;5.38;;;;;;;19.75;83.99;98804.22;4983541;28;102598;-71
2021/09/11 03:02:19;;;;;;;8.35;7.65;;;;;;;19.56;85.62;98805.34;4988618;28;103791;-72
2021/09/11 03:04:48;;;;;;;7.63;6.28;;;;;;;19.67;84.85;98806.88;4985874;28;103263;-72
2021/09/11 03:07:16;;;;;;;7.07;6.57;;;;;;;19.67;84.80;98804.19;4985848;28;103188;-72
2021/09/11 03:09:45;;;;;;;6.47;5.88;;;;;;;19.65;85.34;98803.50;4987315;28;102660;-77
2021/09/11 03:12:13;;;;;;;7.65;6.95;;;;;;;19.60;85.95;98795.97;4981603;28;103097;-69
2021/09/11 03:14:41;;;;;;;8.38;7.68;;;;;;;19.26;87.55;98802.38;4983011;28;103945;-73
2021/09/11 03:17:09;;;;;;;7.32;6.63;;;;;;;19.28;87.60;98801.25;4987513;28;102750;-74
2021/09/11 03:19:37;;;;;;;6.60;5.95;;;;;;;19.37;86.78;98788.72;4970479;28;103010;-73
2021/09/11 03:22:05;;;;;;;7.93;7.22;;;;;;;19.19;86.20;98790.66;4987841;28;102794;-73
2021/09/11 03:24:33;;;;;;;7.95;6.63;;;;;;;19.27;86.12;98785.31;4987908;28;104234;-73
2021/09/11 03:27:02;;;;;;;9.07;7.03;;;;;;;19.20;86.45;98787.00;4985980;28;103262;-73
2021/09/11 03:29:30;;;;;;;7.47;6.88;;;;;;;19.15;86.61;98784.78;4987302;28;102664;-73
2021/09/11 03:31:58;;;;;;;7.80;7.10;;;;;;;19.18;86.84;98787.13;4979950;28;102751;-73
2021/09/11 03:34:26;;;;;;;7.10;6.60;;;;;;;19.23;86.58;98786.66;4972215;28;104144;-71
2021/09/11 03:36:54;;;;;;;7.68;7.03;;;;;;;19.10;86.69;98787.97;4984473;28;103256;-65
2021/09/11 03:39:22;;;;;;;7.45;6.85;;;;;;;19.08;86.84;98789.97;4967387;28;102670;-65
2021/09/11 03:41:50;;;;;;;7.93;7.15;;;;;;;19.08;86.81;98794.47;4985609;28;102701;-65
2021/09/11 03:44:20;;;;;;;10.10;6.97;;;;;;;19.11;86.84;98794.97;4983926;28;103361;-65
2021/09/11 03:46:48;;;;;;;7.57;6.60;;;;;;;19.25;86.35;98801.56;4984156;28;103225;-64
2021/09/11 03:49:16;;;;;;;6.65;6.15;;;;;;;19.39;85.89;98795.63;4985378;28;102690;-65
2021/09/11 03:51:44;;;;;;;5.55;5.05;;;;;;;19.45;85.23;98799.47;4979652;28;102923;-65
2021/09/11 03:54:12;;;;;;;6.43;5.93;;;;;;;19.47;85.09;98800.13;4983031;28;103277;-66
2021/09/11 03:56:40;;;;;;;6.13;5.72;;;;;;;19.51;84.78;98793.44;4971466;28;103222;-65
2021/09/11 03:59:08;;;;;;;5.35;4.95;;;;;;;19.58;84.76;98799.81;4985134;28;102928;-65
2021/09/11 04:01:38;;;;;;;5.50;5.10;;;;;;;19.59;84.20;98793.47;4985994;28;102656;-65
2021/09/11 04:04:06;;;;;;;6.60;6.10;;;;;;;19.59;84.13;98794.28;4982700;28;103809;-66
2021/09/11 04:06:34;;;;;;;6.43;5.93;;;;;;;19.38;85.37;98796.59;4991391;28;103255;-66
2021/09/11 04:09:02;;;;;;;6.30;5.80;;;;;;;19.52;84.46;98797.81;4996905;28;102677;-65
2021/09/11 04:11:30;;;;;;;7.15;6.53;;;;;;;19.45;84.96;98802.16;4969719;28;103029;-65
2021/09/11 04:13:58;;;;;;;6.18;5.72;;;;;;;19.52;84.80;98803.16;4982687;28;103313;-66
2021/09/11 04:16:26;;;;;;;6.38;5.88;;;;;;;19.56;85.21;98799.97;4967191;28;103234;-65
2021/09/11 04:18:56;;;;;;;7.60;6.97;;;;;;;19.50;85.95;98803.34;4988454;28;102602;-65
2021/09/11 04:21:24;;;;;;;8.65;7.97;;;;;;;19.27;86.41;98796.88;4989330;28;102702;-64
2021/09/11 04:23:52;;;;;;;6.97;6.35;;;;;;;19.34;86.60;98802.44;4984269;28;103379;-63
2021/09/11 04:26:20;;;;;;;7.82;7.13;;;;;;;19.40;86.65;98801.78;4984930;28;103358;-64
2021/09/11 04:28:48;;;;;;;7.57;6.93;;;;;;;19.35;86.86;98804.09;4989120;28;103129;-63
2021/09/11 04:31:16;;;;;;;8.23;7.53;;;;;;;19.21;87.31;98804.72;4987867;28;103843;-63
2021/09/11 04:33:44;;;;;;;8.13;7.32;;;;;;;19.25;87.85;98808.75;4980528;28;103508;-64
2021/09/11 04:36:13;;;;;;;7.28;6.68;;;;;;;19.24;87.78;98805.25;4987190;28;103271;-63
2021/09/11 04:38:42;;;;;;;8.20;7.50;;;;;;;19.39;86.78;98813.53;4984752;28;102686;-64
2021/09/11 04:41:10;;;;;;;7.55;6.85;;;;;;;19.43;86.83;98814.84;4985128;28;103937;-65
2021/09/11 04:43:38;;;;;;;7.43;6.80;;;;;;;19.37;88.43;98815.50;4984048;28;103267;-66
2021/09/11 04:46:06;;;;;;;7.45;6.82;;;;;;;19.35;89.41;98817.47;4966191;28;103404;-66
2021/09/11 04:48:35;;;;;;;6.88;6.38;;;;;;;19.27;88.40;98812.09;4984071;28;102623;-65
2021/09/11 04:51:03;;;;;;;6.35;5.85;;;;;;;19.38;88.12;98818.03;4980390;28;102663;-65
2021/09/11 04:53:32;;;;;;;7.28;6.68;;;;;;;19.39;88.16;98822.41;4988583;28;103914;-65
2021/09/11 04:56:00;;;;;;;5.97;5.57;;;;;;;19.39;88.31;98824.25;4980535;28;103222;-64
2021/09/11 04:58:28;;;;;;;8.80;7.10;;;;;;;19.33;89.99;98828.38;4984517;28;102734;-65
2021/09/11 05:00:56;;;;;;;7.85;7.05;;;;;;;19.13;92.26;98823.44;4990136;28;104022;-65
2021/09/11 05:03:24;;;;;;;9.07;8.27;;;;;;;19.04;93.34;98828.75;4970468;28;103420;-65
2021/09/11 05:05:54;;;;;;;10.25;9.35;;;;;;;18.69;95.95;98831.63;4983425;28;103218;-70
2021/09/11 05:08:22;;;;;;;9.73;8.93;;;;;;;18.57;97.35;98840.91;4979700;28;102739;-70
2021/09/11 05:10:52;;;;;;;8.02;7.35;;;;;;;18.66;96.98;98831.94;4978465;28;102653;-70
2021/09/11 05:13:20;;;;;;;8.85;8.05;;;;;;;18.67;95.04;98833.59;4971261;28;104173;-69
2021/09/11 05:15:48;;;;;;;9.45;8.65;;;;;;;18.62;96.22;98835.91;4987935;28;103316;-69
2021/09/11 05:18:16;;;;;;;6.65;6.15;;;;;;;18.90;94.23;98832.03;4982938;28;102862;-70
2021/09/11 05:20:44;;;;;;;8.02;7.32;;;;;;;19.13;93.79;98839.50;4985489;28;102715;-70
2021/09/11 05:23:12;;;;;;;7.68;7.03;;;;;;;19.20;94.30;98829.84;4988850;28;104922;-69
2021/09/11 05:25:40;;;;;;;7.50;6.90;;;;;;;19.32;93.23;98837.41;4983975;28;103320;-69
2021/09/11 05:28:09;;;;;;;6.40;5.90;;;;;;;19.42;92.69;98840.00;4985535;28;103138;-70
2021/09/11 05:30:37;;;;;;;6.57;6.07;;;;;;;19.48;92.28;98842.03;4980982;28;103802;-69
2021/09/11 05:33:05;;;;;;;5.38;4.97;;;;;;;19.52;91.78;98841.50;4984428;28;104374;-70
2021/09/11 05:35:33;;;;;;;5.97;5.57;;;;;;;19.57;91.49;98849.06;4987347;28;103001;-69
2021/09/11 05:38:01;;;;;;;8.02;7.22;;;;;;;19.58;91.34;98845.38;4985782;28;102662;-69
2021/09/11 05:40:29;;;;;;;6.95;6.38;;;;;;;19.55;92.09;98846.56;4963686;28;102780;-70
2021/09/11 05:42:57;;;;;;;6.55;6.07;;;;;;;19.58;91.94;98845.38;4987015;28;103962;-65
2021/09/11 05:45:27;;;;;;;7.65;7.05;;;;;;;19.63;92.08;98848.41;4986795;28;103188;-65
2021/09/11 05:47:56;;;;;;;8.10;7.25;;;;;;;19.64;91.90;98845.56;4968643;28;103679;-64
2021/09/11 05:50:24;;;;;;;8.07;7.47;;;;;;;19.59;92.43;98849.75;4989293;28;103726;-65
2021/09/11 05:52:52;;;;;;;7.70;7.00;;;;;;;19.61;91.18;98845.06;4985384;28;103394;-69
2021/09/11 05:55:20;;;;;;;8.55;7.85;;;;;;;19.58;92.25;98853.41;4987169;28;103280;-70
2021/09/11 05:57:49;;;;;;;7.50;6.75;;;;;;;19.61;92.50;98861.13;4983950;28;102594;-70
2021/09/11 06:00:17;;;;;;;8.48;7.85;;;;;;;19.63;92.49;98859.13;4989816;28;102595;-68
2021/09/11 06:02:47;;;;;;;9.70;8.90;;;;;;;19.69;91.89;98861.16;4988270;28;103361;-72
2021/09/11 06:05:16;;;;;;;11.57;10.50;;;;;;;19.69;92.94;98858.47;4985706;28;103357;-72
2021/09/11 06:07:44;;;;;;;9.70;8.80;;;;;;;19.76;92.88;98853.31;4965492;28;102735;-71
2021/09/11 06:10:13;;;;;;;7.65;7.05;;;;;;;19.78;92.41;98857.50;4986557;28;102994;-71
2021/09/11 06:12:41;;;;;;;11.05;10.13;;;;;;;19.58;94.09;98853.41;4981441;28;103162;-63
2021/09/11 06:15:12;;;;;;;12.48;11.40;;;;;;;19.51;95.21;98855.06;4962857;28;103294;-63
2021/09/11 06:17:40;;;;;;;9.65;8.95;;;;;;;19.66;93.88;98850.75;4981454;28;102976;-62
2021/09/11 06:20:11;;;;;;;13.75;12.65;;;;;;;19.72;93.37;98852.78;4983282;28;104045;-63
2021/09/11 06:22:39;;;;;;;13.50;12.20;;;;;;;19.63;94.43;98862.66;4984080;28;103273;-63
2021/09/11 06:25:08;;;;;;;11.32;10.43;;;;;;;19.65;94.13;98863.31;4980423;28;103024;-63
2021/09/11 06:27:37;;;;;;;10.85;9.85;;;;;;;19.61;93.27;98861.13;4975643;28;102987;-63
2021/09/11 06:30:06;;;;;;;8.55;7.85;;;;;;;19.73;93.20;98859.00;4982899;28;102712;-63
2021/09/11 06:32:34;;;;;;;9.77;8.85;;;;;;;19.75;93.08;98867.69;4985366;28;103024;-64
2021/09/11 06:35:03;;;;;;;9.15;8.35;;;;;;;19.68;92.86;98872.88;4981106;28;103281;-63
2021/09/11 06:37:33;;;;;;;6.28;5.72;;;;;;;19.91;91.53;98868.56;4980218;28;102556;-62
2021/09/11 06:40:01;;;;;;;8.70;7.22;;;;;;;19.96;91.00;98870.72;4982892;28;102675;-63
2021/09/11 06:42:29;;;;;;;8.13;7.50;;;;;;;20.01;90.68;98869.25;4981924;28;103790;-64
2021/09/11 06:44:57;;;;;;;6.03;5.53;;;;;;;19.92;90.64;98870.25;4989203;28;103227;-63
2021/09/11 06:47:25;;;;;;;7.07;6.57;;;;;;;19.94;90.36;98872.75;4983979;28;102689;-64
2021/09/11 06:49:53;;;;;;;6.70;6.20;;;;;;;20.02;89.85;98873.59;4989423;28;104524;-71
2021/09/11 06:52:22;;;;;;;5.68;5.18;;;;;;;20.19;89.76;98875.28;4988725;28;103313;-71
2021/09/11 06:54:51;;;;;;;5.68;5.28;;;;;;;20.39;88.42;98869.59;4986192;28;103200;-71
2021/09/11 06:57:19;;;;;;;6.45;5.95;;;;;;;20.49;88.02;98873.78;4987764;28;102611;-70
2021/09/11 06:59:47;;;;;;;8.10;7.25;;;;;;;20.01;90.19;98861.22;4989745;28;102706;-62
2021/09/11 07:02:15;;;;;;;7.68;6.97;;;;;;;20.16;89.68;98870.25;4987128;28;103452;-63
2021/09/11 07:04:44;;;;;;;6.38;5.88;;;;;;;20.39;88.62;98862.41;4971274;28;103122;-63
2021/09/11 07:07:12;;;;;;;6.63;6.13;;;;;;;20.50;88.27;98872.78;4987692;28;102608;-63
2021/09/11 07:09:39;;;;;;;7.03;6.13;;;;;;;20.53;88.19;98868.94;4993579;28;102749;-63
2021/09/11 07:12:09;;;;;;;7.03;6.32;;;;;;;20.69;87.52;98867.06;4974606;28;104243;-62
2021/09/11 07:14:37;;;;;;;6.65;6.10;;;;;;;20.66;87.44;98869.25;4987567;28;103698;-63
2021/09/11 07:17:05;;;;;;;7.13;6.40;;;;;;;20.74;87.49;98869.25;4988883;28;102925;-63
2021/09/11 07:19:33;;;;;;;5.90;5.32;;;;;;;20.79;88.22;98873.09;4986598;28;102808;-63
2021/09/11 07:22:01;;;;;;;5.78;5.28;;;;;;;20.84;87.69;98877.94;4987309;28;103325;-70
2021/09/11 07:24:29;;;;;;;6.00;5.50;;;;;;;20.96;86.78;98881.94;4987564;28;103261;-71
2021/09/11 07:26:57;;;;;;;6.20;5.68;;;;;;;20.80;87.66;98881.97;4988239;28;102663;-71
2021/09/11 07:29:27;;;;;;;5.72;4.90;;;;;;;21.04;85.84;98876.53;4987531;28;103527;-72
2021/09/11 07:31:55;;;;;;;4.78;4.38;;;;;;;21.16;85.16;98883.25;4986777;28;103312;-70
2021/09/11 07:34:23;;;;;;;5.45;4.95;;;;;;;21.05;85.57;98878.19;4986644;28;103321;-72
2021/09/11 07:36:52;;;;;;;5.65;5.07;;;;;;;20.94;85.52;98883.94;4987928;28;102804;-72
2021/09/11 07:39:20;;;;;;;4.43;4.03;;;;;;;21.16;85.29;98877.91;4974112;28;103071;-67
2021/09/11 07:41:48;;;;;;;5.25;4.75;;;;;;;21.63;82.79;98879.69;4988005;28;103295;-64
2021/09/11 07:44:16;;;;;;;6.25;5.32;;;;;;;21.19;84.12;98880.19;4984900;28;103221;-69
2021/09/11 07:46:46;;;;;;;5.50;5.00;;;;;;;21.45;83.06;98888.00;4990137;28;104445;-70
2021/09/11 07:49:14;;;;;;;5.38;4.88;;;;;;;21.58;82.13;98888.28;4986274;28;104022;-69
2021/09/11 07:51:42;;;;;;;5.10;4.60;;;;;;;21.80;81.94;98892.03;4992878;28;103344;-69
2021/09/11 07:54:10;;;;;;;5.63;4.38;;;;;;;21.57;81.96;98885.75;4988541;28;103241;-69
2021/09/11 07:56:38;;;;;;;4.70;4.30;;;;;;;21.60;81.81;98893.47;4990643;28;103325;-63
2021/09/11 07:59:06;;;;;;;5.95;5.45;;;;;;;21.65;81.76;98889.25;4987879;28;102643;-64
2021/09/11 08:01:34;;;;;;;5.13;4.70;;;;;;;21.88;80.49;98889.31;4986022;28;103343;-64
2021/09/11 08:04:04;;;;;;;4.88;4.07;;;;;;;22.20;80.64;98889.09;4994567;28;103316;-62
2021/09/11 08:06:33;;;;;;;4.55;4.15;;;;;;;22.32;80.50;98901.09;4989320;28;102656;-64
2021/09/11 08:09:01;;;;;;;5.00;4.25;;;;;;;22.15;79.46;98904.94;4986648;28;104201;-64
2021/09/11 08:11:29;;;;;;;5.90;4.45;;;;;;;22.07;79.27;98899.59;4977046;28;103345;-64
2021/09/11 08:13:57;;;;;;;4.82;4.43;;;;;;;21.94;80.44;98902.06;4984268;28;104583;-64
2021/09/11 08:16:25;;;;;;;5.07;4.55;;;;;;;21.98;80.36;98900.66;4982279;28;102802;-64
2021/09/11 08:18:53;;;;;;;4.95;4.55;;;;;;;22.49;79.52;98905.34;4979356;28;102972;-64
2021/09/11 08:21:22;;;;;;;4.65;4.25;;;;;;;23.10;76.70;98898.06;4964151;28;103299;-63
2021/09/11 08:23:50;;;;;;;4.35;4.00;;;;;;;22.91;76.59;98909.34;4981425;28;103273;-63
2021/09/11 08:26:19;;;;;;;4.82;4.53;;;;;;;23.23;76.40;98909.00;4979158;28;102646;-63
2021/09/11 08:28:48;;;;;;;5.07;4.57;;;;;;;23.24;73.98;98907.16;4979303;28;102989;-64
2021/09/11 08:31:16;;;;;;;5.47;4.97;;;;;;;22.42;77.48;98919.72;4977577;28;103318;-64
2021/09/11 08:33:44;;;;;;;5.07;4.68;;;;;;;22.56;77.95;98918.06;4976654;28;103193;-64
2021/09/11 08:36:12;;;;;;;4.85;4.45;;;;;;;22.73;77.12;98917.78;4966942;28;102887;-64
2021/09/11 08:38:42;;;;;;;3.60;3.30;;;;;;;22.64;78.39;98908.09;4973073;28;102709;-64
2021/09/11 08:41:12;;;;;;;3.95;3.65;;;;;;;23.01;77.00;98916.16;4983487;28;104366;-65
2021/09/11 08:43:40;;;;;;;4.63;4.18;;;;;;;22.99;76.46;98912.78;4979511;28;103355;-65
2021/09/11 08:46:08;;;;;;;4.95;4.22;;;;;;;22.76;76.36;98927.34;4963629;28;104176;-63
2021/09/11 08:48:36;;;;;;;3.50;3.22;;;;;;;23.06;76.77;98918.28;4979200;28;102938;-63
2021/09/11 08:51:04;;;;;;;4.60;3.75;;;;;;;22.96;76.39;98912.34;4982564;28;103299;-63
2021/09/11 08:53:32;;;;;;;4.45;3.63;;;;;;;23.17;75.58;98909.75;4985089;28;103267;-63
2021/09/11 08:56:02;;;;;;;4.57;4.25;;;;;;;22.75;76.13;98915.75;4987390;28;102776;-63
2021/09/11 08:58:30;;;;;;;4.95;4.15;;;;;;;22.53;77.24;98921.97;4982756;28;102742;-63
2021/09/11 09:01:02;;;;;;;4.70;4.30;;;;;;;22.46;77.74;98912.94;4979347;28;103424;-63
2021/09/11 09:03:36;;;;;;;4.68;4.28;;;;;;;22.76;76.71;98913.88;4987086;28;103034;-63
2021/09/11 09:06:21;;;;;;;3.67;3.38;;;;;;;22.94;76.27;98908.97;4978791;28;102953;-63
2021/09/11 09:08:52;;;;;;;4.78;4.00;;;;;;;22.95;76.44;98908.81;4988661;28;104309;-63
2021/09/11 09:11:25;;;;;;;4.65;3.90;;;;;;;22.85;76.95;98908.22;4992139;28;103427;-64
2021/09/11 09:13:58;;;;;;;4.22;3.35;;;;;;;23.17;75.73;98898.97;4984574;28;103308;-63
2021/09/11 09:16:29;;;;;;;3.40;3.10;;;;;;;23.41;75.59;98901.41;4982995;28;102637;-62
2021/09/11 09:18:58;;;;;;;5.20;3.95;;;;;;;23.31;74.99;98905.38;4982716;28;102704;-62
2021/09/11 09:21:28;;;;;;;3.83;3.53;;;;;;;23.24;74.14;98897.22;4988679;28;103902;-69
2021/09/11 09:23:58;;;;;;;4.28;3.92;;;;;;;23.58;73.80;98900.16;4981956;28;103318;-69
2021/09/11 09:26:28;;;;;;;3.55;3.25;;;;;;;24.06;71.29;98900.50;4983950;28;102705;-63
2021/09/11 09:29:06;;;;;;;3.38;3.08;;;;;;;24.23;70.94;98897.41;4986217;28;102682;-63
2021/09/11 09:31:35;;;;;;;3.20;2.90;;;;;;;24.33;70.74;98890.84;4982549;28;103237;-69
2021/09/11 09:34:03;;;;;;;3.20;2.90;;;;;;;24.50;67.26;98898.50;4967590;28;103280;-70
2021/09/11 09:36:37;;;;;;;4.55;3.20;;;;;;;24.48;70.49;98895.13;4984927;28;102968;-69
2021/09/11 09:39:07;;;;;;;3.05;2.67;;;;;;;24.87;67.98;98893.84;4986455;28;104079;-62
2021/09/11 09:41:48;;;;;;;3.22;2.92;;;;;;;24.82;68.02;98891.72;4986860;28;104134;-69
2021/09/11 09:44:17;;;;;;;2.97;2.67;;;;;;;24.60;67.87;98899.00;4992891;28;103330;-69
2021/09/11 09:46:47;;;;;;;2.80;2.60;;;;;;;24.59;68.12;98893.81;4988852;28;102648;-62
2021/09/11 09:49:21;;;;;;;3.78;2.83;;;;;;;24.05;68.77;98898.84;4986927;28;102751;-69
2021/09/11 09:51:50;;;;;;;3.20;2.90;;;;;;;24.01;69.56;98892.16;4965954;28;104320;-62
2021/09/11 09:54:19;;;;;;;2.35;2.15;;;;;;;24.37;69.27;98892.13;4965446;28;103222;-69
2021/09/11 09:56:48;;;;;;;3.38;2.88;;;;;;;24.40;68.33;98897.97;4989778;28;102927;-69
2021/09/11 09:59:18;;;;;;;2.30;2.10;;;;;;;24.91;67.05;98889.69;4981798;28;103006;-69
2021/09/11 10:01:49;;;;;;;2.45;2.25;;;;;;;25.28;66.17;98889.31;4978471;28;103977;-69
2021/09/11 10:04:20;;;;;;;2.47;2.28;;;;;;;25.25;65.81;98882.44;4982270;28;103222;-61
2021/09/11 10:06:51;;;;;;;2.45;2.25;;;;;;;25.35;65.76;98882.06;4989191;28;102608;-69
2021/09/11 10:09:23;;;;;;;5.57;2.97;;;;;;;25.58;63.78;98877.22;4983834;28;102666;-69
2021/09/11 10:11:52;;;;;;;2.90;2.58;;;;;;;26.09;63.50;98874.03;4980476;28;103835;-69
2021/09/11 10:14:22;;;;;;;3.58;2.83;;;;;;;26.02;62.27;98878.59;4989898;28;104044;-62
2021/09/11 10:16:59;;;;;;;3.75;2.40;;;;;;;26.42;60.79;98878.47;4988473;28;102651;-68
2021/09/11 10:19:28;;;;;;;2.90;2.70;;;;;;;25.87;62.62;98874.19;4984501;28;102708;-69
2021/09/11 10:22:22;;;;;;;2.60;2.40;;;;;;;25.86;64.37;98875.22;4984808;28;103321;-69
2021/09/11 10:24:59;;;;;;;3.50;2.42;;;;;;;25.00;66.38;98878.53;4971222;28;103578;-61
2021/09/11 10:27:35;;;;;;;2.85;2.65;;;;;;;24.19;68.19;98873.69;4985334;28;102821;-61
2021/09/11 10:30:09;;;;;;;2.83;2.63;;;;;;;24.62;69.72;98869.06;4981041;28;102651;-62
2021/09/11 10:32:44;;;;;;;3.60;3.30;;;;;;;23.54;69.08;98863.00;4990392;28;103305;-62
2021/09/11 10:35:17;;;;;;;3.92;3.13;;;;;;;23.60;70.08;98860.38;4995033;28;103207;-62
2021/09/11 10:37:47;;;;;;;2.97;2.67;;;;;;;24.10;69.48;98864.06;4989788;28;102707;-62
2021/09/11 10:40:31;;;;;;;2.65;2.45;;;;;;;24.62;68.13;98860.97;4991325;28;103835;-62
2021/09/11 10:43:28;;;;;;;3.13;2.90;;;;;;;23.58;71.55;98854.31;4969969;28;103335;-62
2021/09/11 10:46:06;;;;;;;3.75;3.45;;;;;;;22.95;72.96;98859.47;4988369;28;103096;-69
2021/09/11 10:48:55;;;;;;;3.45;3.15;;;;;;;23.15;72.02;98852.50;4990951;28;102771;-69
2021/09/11 10:51:34;;;;;;;3.83;2.88;;;;;;;23.22;71.91;98853.44;4996294;28;102753;-69
2021/09/11 10:54:12;;;;;;;3.58;2.92;;;;;;;23.02;72.67;98850.47;4990096;28;103375;-69
2021/09/11 10:56:51;;;;;;;3.10;2.80;;;;;;;23.37;72.31;98840.78;4985857;28;103093;-69
2021/09/11 10:59:34;;;;;;;3.20;2.90;;;;;;;23.72;70.68;98849.91;4985957;28;102972;-69
2021/09/11 11:02:20;;;;;;;4.63;2.50;;;;;;;24.08;70.17;98849.91;4989618;28;102702;-69
2021/09/11 11:04:57;;;;;;;4.28;3.05;;;;;;;23.99;69.01;98846.50;4984000;28;103318;-70
2021/09/11 11:07:27;;;;;;;3.20;2.95;;;;;;;23.14;72.35;98848.13;4986900;28;103195;-70
2021/09/11 11:09:57;;;;;;;2.95;2.75;;;;;;;23.13;71.97;98848.34;4978359;28;103712;-69
2021/09/11 11:12:28;;;;;;;2.75;2.55;;;;;;;23.57;70.35;98847.28;4975050;28;103285;-68
2021/09/11 11:15:00;;;;;;;3.30;3.00;;;;;;;22.77;71.95;98853.59;4984909;28;103947;-69
2021/09/11 11:17:29;;;;;;;3.10;2.65;;;;;;;23.03;71.12;98845.91;4979769;28;103388;-62
2021/09/11 11:19:58;;;;;;;2.72;2.53;;;;;;;23.33;71.33;98849.41;4981391;28;102681;-70
2021/09/11 11:22:31;;;;;;;2.40;2.20;;;;;;;23.78;70.65;98848.31;4980286;28;103051;-70
2021/09/11 11:25:00;;;;;;;3.22;1.88;;;;;;;23.93;69.20;98846.41;4960011;28;104117;-61
2021/09/11 11:27:29;;;;;;;3.88;3.20;;;;;;;23.22;70.91;98847.19;4970438;28;103212;-61
2021/09/11 11:30:00;;;;;;;2.10;2.00;;;;;;;23.48;69.19;98842.19;4982917;28;102658;-63
2021/09/11 11:32:32;;;;;;;3.25;2.25;;;;;;;23.37;71.21;98839.94;4979333;28;103180;-62
2021/09/11 11:35:00;;;;;;;2.20;2.10;;;;;;;23.73;69.37;98845.38;4974745;28;103274;-63